sensor_id;sensor_type;location;lat;lon;timestamp;temperature;humidity
11532;DHT22;5822;51.000;5.874;2022-12-07T00:01:33;8.30;99.90
11532;DHT22;5822;51.000;5.874;2022-12-07T00:04:02;8.40;99.90
11532;DHT22;5822;51.000;5.874;2022-12-07T00:08:57;8.50;99.90
11532;DHT22;5822;51.000;5.874;2022-12-07T00:11:23;8.50;99.90
11532;DHT22;5822;51.000;5.874;2022-12-07T00:14:10;8.30;99.90
11532;DHT22;5822;51.000;5.874;2022-12-07T00:16:36;8.30;99.90
11532;DHT22;5822;51.000;5.874;2022-12-07T00:19:03;8.20;99.90
11532;DHT22;5822;51.000;5.874;2022-12-07T00:21:32;8.20;99.90
11532;DHT22;5822;51.000;5.874;2022-12-07T00:23:58;8.10;99.90
11532;DHT22;5822;51.000;5.874;2022-12-07T00:26:29;8.20;99.90
11532;DHT22;5822;51.000;5.874;2022-12-07T00:29:04;8.30;99.90
11532;DHT22;5822;51.000;5.874;2022-12-07T00:31:33;8.30;99.90
11532;DHT22;5822;51.000;5.874;2022-12-07T00:34:00;8.30;99.90
11532;DHT22;5822;51.000;5.874;2022-12-07T00:36:26;8.10;99.90
11532;DHT22;5822;51.000;5.874;2022-12-07T00:38:52;8.10;99.90
11532;DHT22;5822;51.000;5.874;2022-12-07T00:41:20;8.10;99.90
11532;DHT22;5822;51.000;5.874;2022-12-07T00:43:46;8.20;99.90
11532;DHT22;5822;51.000;5.874;2022-12-07T00:46:13;8.30;99.90
11532;DHT22;5822;51.000;5.874;2022-12-07T00:48:39;8.40;99.90
11532;DHT22;5822;51.000;5.874;2022-12-07T00:51:05;8.30;99.90
11532;DHT22;5822;51.000;5.874;2022-12-07T00:53:34;8.40;99.90
11532;DHT22;5822;51.000;5.874;2022-12-07T00:56:05;8.40;99.90
11532;DHT22;5822;51.000;5.874;2022-12-07T00:58:31;8.40;99.90
11532;DHT22;5822;51.000;5.874;2022-12-07T01:01:00;8.40;99.90
11532;DHT22;5822;51.000;5.874;2022-12-07T01:03:26;8.40;99.90
11532;DHT22;5822;51.000;5.874;2022-12-07T01:05:53;8.40;99.90
11532;DHT22;5822;51.000;5.874;2022-12-07T01:08:20;8.50;99.90
11532;DHT22;5822;51.000;5.874;2022-12-07T01:10:46;8.30;99.90
11532;DHT22;5822;51.000;5.874;2022-12-07T01:13:12;8.20;99.90
11532;DHT22;5822;51.000;5.874;2022-12-07T01:15:44;8.20;99.90
11532;DHT22;5822;51.000;5.874;2022-12-07T01:18:10;8.30;99.90
11532;DHT22;5822;51.000;5.874;2022-12-07T01:20:36;8.40;99.90
11532;DHT22;5822;51.000;5.874;2022-12-07T01:23:02;8.40;99.90
11532;DHT22;5822;51.000;5.874;2022-12-07T01:25:28;8.50;99.90
11532;DHT22;5822;51.000;5.874;2022-12-07T01:27:54;8.30;99.90
11532;DHT22;5822;51.000;5.874;2022-12-07T01:30:19;8.30;99.90
11532;DHT22;5822;51.000;5.874;2022-12-07T01:32:45;8.30;99.90
11532;DHT22;5822;51.000;5.874;2022-12-07T01:35:11;8.30;99.90
11532;DHT22;5822;51.000;5.874;2022-12-07T01:37:37;8.30;99.90
11532;DHT22;5822;51.000;5.874;2022-12-07T01:40:05;8.40;99.90
11532;DHT22;5822;51.000;5.874;2022-12-07T01:42:32;8.30;99.90
11532;DHT22;5822;51.000;5.874;2022-12-07T01:48:01;8.40;99.90
11532;DHT22;5822;51.000;5.874;2022-12-07T01:50:28;8.40;99.90
11532;DHT22;5822;51.000;5.874;2022-12-07T01:52:58;8.30;99.90
11532;DHT22;5822;51.000;5.874;2022-12-07T01:55:25;8.30;99.90
11532;DHT22;5822;51.000;5.874;2022-12-07T01:57:53;8.40;99.90
11532;DHT22;5822;51.000;5.874;2022-12-07T02:00:19;8.40;99.90
11532;DHT22;5822;51.000;5.874;2022-12-07T02:03:06;8.30;99.90
11532;DHT22;5822;51.000;5.874;2022-12-07T02:05:34;8.30;99.90
11532;DHT22;5822;51.000;5.874;2022-12-07T02:08:01;8.40;99.90
11532;DHT22;5822;51.000;5.874;2022-12-07T02:10:29;8.40;99.90
11532;DHT22;5822;51.000;5.874;2022-12-07T02:13:05;8.40;99.90
11532;DHT22;5822;51.000;5.874;2022-12-07T02:21:25;8.40;99.90
11532;DHT22;5822;51.000;5.874;2022-12-07T02:27:11;8.40;99.90
11532;DHT22;5822;51.000;5.874;2022-12-07T02:29:54;8.30;99.90
11532;DHT22;5822;51.000;5.874;2022-12-07T02:32:58;8.30;99.90
11532;DHT22;5822;51.000;5.874;2022-12-07T02:35:35;8.30;99.90
11532;DHT22;5822;51.000;5.874;2022-12-07T02:38:16;8.40;99.90
11532;DHT22;5822;51.000;5.874;2022-12-07T02:40:55;8.40;99.90
11532;DHT22;5822;51.000;5.874;2022-12-07T02:43:35;8.40;99.90
11532;DHT22;5822;51.000;5.874;2022-12-07T02:46:13;8.50;99.90
11532;DHT22;5822;51.000;5.874;2022-12-07T02:48:40;8.40;99.90
11532;DHT22;5822;51.000;5.874;2022-12-07T02:51:07;8.40;99.90
11532;DHT22;5822;51.000;5.874;2022-12-07T02:53:41;8.30;99.90
11532;DHT22;5822;51.000;5.874;2022-12-07T03:13:16;8.40;99.90
11532;DHT22;5822;51.000;5.874;2022-12-07T03:15:58;8.40;99.90
11532;DHT22;5822;51.000;5.874;2022-12-07T03:18:29;8.40;99.90
11532;DHT22;5822;51.000;5.874;2022-12-07T03:20:58;8.40;99.90
11532;DHT22;5822;51.000;5.874;2022-12-07T03:23:27;8.40;99.90
11532;DHT22;5822;51.000;5.874;2022-12-07T03:25:57;8.20;99.90
11532;DHT22;5822;51.000;5.874;2022-12-07T03:28:28;8.30;99.90
11532;DHT22;5822;51.000;5.874;2022-12-07T03:31:17;8.30;99.90
11532;DHT22;5822;51.000;5.874;2022-12-07T03:34:01;8.20;99.90
11532;DHT22;5822;51.000;5.874;2022-12-07T03:36:38;8.20;99.90
11532;DHT22;5822;51.000;5.874;2022-12-07T03:39:27;8.30;99.90
11532;DHT22;5822;51.000;5.874;2022-12-07T03:41:55;8.20;99.90
11532;DHT22;5822;51.000;5.874;2022-12-07T03:44:22;8.20;99.90
11532;DHT22;5822;51.000;5.874;2022-12-07T03:52:40;8.10;99.90
11532;DHT22;5822;51.000;5.874;2022-12-07T03:55:20;8.20;99.90
11532;DHT22;5822;51.000;5.874;2022-12-07T03:57:50;8.30;99.90
11532;DHT22;5822;51.000;5.874;2022-12-07T04:00:17;8.20;99.90
11532;DHT22;5822;51.000;5.874;2022-12-07T04:02:43;8.30;99.90
11532;DHT22;5822;51.000;5.874;2022-12-07T04:05:10;8.30;99.90
11532;DHT22;5822;51.000;5.874;2022-12-07T04:07:35;8.10;99.90
11532;DHT22;5822;51.000;5.874;2022-12-07T04:10:01;8.10;99.90
11532;DHT22;5822;51.000;5.874;2022-12-07T04:12:27;8.00;99.90
11532;DHT22;5822;51.000;5.874;2022-12-07T04:14:52;8.10;99.90
11532;DHT22;5822;51.000;5.874;2022-12-07T04:17:18;8.20;99.90
11532;DHT22;5822;51.000;5.874;2022-12-07T04:19:43;8.30;99.90
11532;DHT22;5822;51.000;5.874;2022-12-07T04:22:09;8.30;99.90
11532;DHT22;5822;51.000;5.874;2022-12-07T04:24:35;8.30;99.90
11532;DHT22;5822;51.000;5.874;2022-12-07T04:27:00;8.30;99.90
11532;DHT22;5822;51.000;5.874;2022-12-07T04:29:26;8.30;99.90
11532;DHT22;5822;51.000;5.874;2022-12-07T04:31:52;8.20;99.90
11532;DHT22;5822;51.000;5.874;2022-12-07T04:34:19;8.20;99.90
11532;DHT22;5822;51.000;5.874;2022-12-07T04:36:46;8.30;99.90
11532;DHT22;5822;51.000;5.874;2022-12-07T04:39:21;8.40;99.90
11532;DHT22;5822;51.000;5.874;2022-12-07T04:41:47;8.30;99.90
11532;DHT22;5822;51.000;5.874;2022-12-07T04:44:13;8.30;99.90
11532;DHT22;5822;51.000;5.874;2022-12-07T04:46:40;8.30;99.90
11532;DHT22;5822;51.000;5.874;2022-12-07T04:49:06;8.30;99.90
11532;DHT22;5822;51.000;5.874;2022-12-07T04:51:31;8.40;99.90
11532;DHT22;5822;51.000;5.874;2022-12-07T04:53:57;8.30;99.90
11532;DHT22;5822;51.000;5.874;2022-12-07T04:56:23;8.10;99.90
11532;DHT22;5822;51.000;5.874;2022-12-07T04:58:50;8.20;99.90
11532;DHT22;5822;51.000;5.874;2022-12-07T05:01:17;8.20;99.90
11532;DHT22;5822;51.000;5.874;2022-12-07T05:03:42;8.10;99.90
11532;DHT22;5822;51.000;5.874;2022-12-07T05:06:09;8.20;99.90
11532;DHT22;5822;51.000;5.874;2022-12-07T05:08:35;8.20;99.90
11532;DHT22;5822;51.000;5.874;2022-12-07T05:11:02;8.10;99.90
11532;DHT22;5822;51.000;5.874;2022-12-07T05:13:28;8.20;99.90
11532;DHT22;5822;51.000;5.874;2022-12-07T05:15:54;8.20;99.90
11532;DHT22;5822;51.000;5.874;2022-12-07T05:18:19;8.20;99.90
11532;DHT22;5822;51.000;5.874;2022-12-07T05:20:45;8.30;99.90
11532;DHT22;5822;51.000;5.874;2022-12-07T05:23:11;8.20;99.90
11532;DHT22;5822;51.000;5.874;2022-12-07T05:25:37;8.20;99.90
11532;DHT22;5822;51.000;5.874;2022-12-07T05:28:04;8.20;99.90
11532;DHT22;5822;51.000;5.874;2022-12-07T05:30:31;8.20;99.90
11532;DHT22;5822;51.000;5.874;2022-12-07T05:32:57;8.20;99.90
11532;DHT22;5822;51.000;5.874;2022-12-07T05:35:22;8.10;99.90
11532;DHT22;5822;51.000;5.874;2022-12-07T05:37:48;8.20;99.90
11532;DHT22;5822;51.000;5.874;2022-12-07T05:40:14;8.10;99.90
11532;DHT22;5822;51.000;5.874;2022-12-07T05:42:41;8.20;99.90
11532;DHT22;5822;51.000;5.874;2022-12-07T05:45:07;8.30;99.90
11532;DHT22;5822;51.000;5.874;2022-12-07T05:47:33;8.30;99.90
11532;DHT22;5822;51.000;5.874;2022-12-07T05:49:59;8.30;99.90
11532;DHT22;5822;51.000;5.874;2022-12-07T05:52:24;8.30;99.90
11532;DHT22;5822;51.000;5.874;2022-12-07T05:54:51;8.40;99.90
11532;DHT22;5822;51.000;5.874;2022-12-07T05:57:17;8.40;99.90
11532;DHT22;5822;51.000;5.874;2022-12-07T05:59:42;8.20;99.90
11532;DHT22;5822;51.000;5.874;2022-12-07T06:02:11;8.40;99.90
11532;DHT22;5822;51.000;5.874;2022-12-07T06:04:40;8.30;99.90
11532;DHT22;5822;51.000;5.874;2022-12-07T06:07:07;8.10;99.90
11532;DHT22;5822;51.000;5.874;2022-12-07T06:09:33;8.10;99.90
11532;DHT22;5822;51.000;5.874;2022-12-07T06:11:59;8.30;99.90
11532;DHT22;5822;51.000;5.874;2022-12-07T06:14:43;8.30;99.90
11532;DHT22;5822;51.000;5.874;2022-12-07T06:17:10;8.40;99.90
11532;DHT22;5822;51.000;5.874;2022-12-07T06:19:36;8.30;99.90
11532;DHT22;5822;51.000;5.874;2022-12-07T06:22:01;8.40;99.90
11532;DHT22;5822;51.000;5.874;2022-12-07T06:24:28;8.30;99.90
11532;DHT22;5822;51.000;5.874;2022-12-07T06:26:53;8.20;99.90
11532;DHT22;5822;51.000;5.874;2022-12-07T06:29:19;8.30;99.90
11532;DHT22;5822;51.000;5.874;2022-12-07T06:31:45;8.30;99.90
11532;DHT22;5822;51.000;5.874;2022-12-07T06:34:14;8.30;99.90
11532;DHT22;5822;51.000;5.874;2022-12-07T06:36:40;8.20;99.90
11532;DHT22;5822;51.000;5.874;2022-12-07T06:39:06;8.30;99.90
11532;DHT22;5822;51.000;5.874;2022-12-07T06:41:33;8.30;99.90
11532;DHT22;5822;51.000;5.874;2022-12-07T06:43:58;8.30;99.90
11532;DHT22;5822;51.000;5.874;2022-12-07T06:46:25;8.30;99.90
11532;DHT22;5822;51.000;5.874;2022-12-07T06:48:50;8.30;99.90
11532;DHT22;5822;51.000;5.874;2022-12-07T06:51:16;8.00;99.90
11532;DHT22;5822;51.000;5.874;2022-12-07T06:53:42;8.20;99.90
11532;DHT22;5822;51.000;5.874;2022-12-07T06:56:07;8.20;99.90
11532;DHT22;5822;51.000;5.874;2022-12-07T06:58:33;8.20;99.90
11532;DHT22;5822;51.000;5.874;2022-12-07T07:00:59;8.20;99.90
11532;DHT22;5822;51.000;5.874;2022-12-07T07:03:25;8.30;99.90
11532;DHT22;5822;51.000;5.874;2022-12-07T07:05:50;8.30;99.90
11532;DHT22;5822;51.000;5.874;2022-12-07T07:08:16;8.30;99.90
11532;DHT22;5822;51.000;5.874;2022-12-07T07:10:41;8.30;99.90
11532;DHT22;5822;51.000;5.874;2022-12-07T07:13:08;8.30;99.90
11532;DHT22;5822;51.000;5.874;2022-12-07T07:15:34;8.30;99.90
11532;DHT22;5822;51.000;5.874;2022-12-07T07:18:00;8.30;99.90
11532;DHT22;5822;51.000;5.874;2022-12-07T07:20:26;8.30;99.90
11532;DHT22;5822;51.000;5.874;2022-12-07T07:22:55;8.30;99.90
11532;DHT22;5822;51.000;5.874;2022-12-07T07:25:21;8.40;99.90
11532;DHT22;5822;51.000;5.874;2022-12-07T07:27:47;8.40;99.90
11532;DHT22;5822;51.000;5.874;2022-12-07T07:30:13;8.20;99.90
11532;DHT22;5822;51.000;5.874;2022-12-07T07:32:38;8.20;99.90
11532;DHT22;5822;51.000;5.874;2022-12-07T07:35:04;8.10;99.90
11532;DHT22;5822;51.000;5.874;2022-12-07T07:37:30;8.00;99.90
11532;DHT22;5822;51.000;5.874;2022-12-07T07:39:56;8.00;99.90
11532;DHT22;5822;51.000;5.874;2022-12-07T07:42:22;8.00;99.90
11532;DHT22;5822;51.000;5.874;2022-12-07T07:44:47;8.00;99.90
11532;DHT22;5822;51.000;5.874;2022-12-07T07:47:13;8.20;99.90
11532;DHT22;5822;51.000;5.874;2022-12-07T07:49:39;8.20;99.90
11532;DHT22;5822;51.000;5.874;2022-12-07T07:52:05;8.10;99.90
11532;DHT22;5822;51.000;5.874;2022-12-07T07:54:31;8.10;99.90
11532;DHT22;5822;51.000;5.874;2022-12-07T07:56:57;8.10;99.90
11532;DHT22;5822;51.000;5.874;2022-12-07T07:59:23;8.10;99.90
11532;DHT22;5822;51.000;5.874;2022-12-07T08:01:50;8.10;99.90
11532;DHT22;5822;51.000;5.874;2022-12-07T08:04:15;8.20;99.90
11532;DHT22;5822;51.000;5.874;2022-12-07T08:06:41;8.20;99.90
11532;DHT22;5822;51.000;5.874;2022-12-07T08:09:08;8.10;99.90
11532;DHT22;5822;51.000;5.874;2022-12-07T08:11:34;8.00;99.90
11532;DHT22;5822;51.000;5.874;2022-12-07T08:14:00;7.90;99.90
11532;DHT22;5822;51.000;5.874;2022-12-07T08:16:26;8.10;99.90
11532;DHT22;5822;51.000;5.874;2022-12-07T08:18:52;8.20;99.90
11532;DHT22;5822;51.000;5.874;2022-12-07T08:21:17;8.20;99.90
11532;DHT22;5822;51.000;5.874;2022-12-07T08:23:43;8.10;99.90
11532;DHT22;5822;51.000;5.874;2022-12-07T08:26:12;8.20;99.90
11532;DHT22;5822;51.000;5.874;2022-12-07T08:28:39;8.20;99.90
11532;DHT22;5822;51.000;5.874;2022-12-07T08:31:13;8.10;99.90
11532;DHT22;5822;51.000;5.874;2022-12-07T08:33:39;8.10;99.90
11532;DHT22;5822;51.000;5.874;2022-12-07T08:36:10;8.20;99.90
11532;DHT22;5822;51.000;5.874;2022-12-07T08:38:38;8.00;99.90
11532;DHT22;5822;51.000;5.874;2022-12-07T08:41:04;8.00;99.90
11532;DHT22;5822;51.000;5.874;2022-12-07T08:43:30;8.10;99.90
11532;DHT22;5822;51.000;5.874;2022-12-07T08:46:13;8.10;99.90
11532;DHT22;5822;51.000;5.874;2022-12-07T08:49:11;8.10;99.90
11532;DHT22;5822;51.000;5.874;2022-12-07T08:51:39;8.00;99.90
11532;DHT22;5822;51.000;5.874;2022-12-07T08:54:07;7.90;99.90
11532;DHT22;5822;51.000;5.874;2022-12-07T08:56:34;7.90;99.90
11532;DHT22;5822;51.000;5.874;2022-12-07T08:59:01;8.00;99.90
11532;DHT22;5822;51.000;5.874;2022-12-07T09:01:28;7.80;99.90
11532;DHT22;5822;51.000;5.874;2022-12-07T09:03:53;7.90;99.90
11532;DHT22;5822;51.000;5.874;2022-12-07T09:06:19;8.10;99.90
11532;DHT22;5822;51.000;5.874;2022-12-07T09:08:47;8.10;99.90
11532;DHT22;5822;51.000;5.874;2022-12-07T09:11:14;8.10;99.90
11532;DHT22;5822;51.000;5.874;2022-12-07T09:13:39;8.10;99.90
11532;DHT22;5822;51.000;5.874;2022-12-07T09:16:05;8.10;99.90
11532;DHT22;5822;51.000;5.874;2022-12-07T09:18:31;8.10;99.90
11532;DHT22;5822;51.000;5.874;2022-12-07T09:20:57;8.10;99.90
11532;DHT22;5822;51.000;5.874;2022-12-07T09:23:22;8.10;99.90
11532;DHT22;5822;51.000;5.874;2022-12-07T09:25:48;8.10;99.90
11532;DHT22;5822;51.000;5.874;2022-12-07T09:28:14;8.00;99.90
11532;DHT22;5822;51.000;5.874;2022-12-07T09:30:46;8.00;99.90
11532;DHT22;5822;51.000;5.874;2022-12-07T09:33:12;8.10;99.90
11532;DHT22;5822;51.000;5.874;2022-12-07T09:35:37;8.20;99.90
11532;DHT22;5822;51.000;5.874;2022-12-07T09:38:03;8.30;99.90
11532;DHT22;5822;51.000;5.874;2022-12-07T09:40:29;8.30;99.90
11532;DHT22;5822;51.000;5.874;2022-12-07T09:42:55;8.10;99.90
11532;DHT22;5822;51.000;5.874;2022-12-07T09:45:24;8.10;99.90
11532;DHT22;5822;51.000;5.874;2022-12-07T09:47:50;8.10;99.90
11532;DHT22;5822;51.000;5.874;2022-12-07T09:50:20;8.10;99.90
11532;DHT22;5822;51.000;5.874;2022-12-07T09:52:47;8.20;99.90
11532;DHT22;5822;51.000;5.874;2022-12-07T09:55:23;8.20;99.90
11532;DHT22;5822;51.000;5.874;2022-12-07T09:57:50;8.30;99.90
11532;DHT22;5822;51.000;5.874;2022-12-07T10:00:20;8.40;99.90
11532;DHT22;5822;51.000;5.874;2022-12-07T10:03:00;8.40;99.90
11532;DHT22;5822;51.000;5.874;2022-12-07T10:05:30;8.50;99.90
11532;DHT22;5822;51.000;5.874;2022-12-07T10:07:56;8.50;99.90
11532;DHT22;5822;51.000;5.874;2022-12-07T10:10:26;8.40;99.90
11532;DHT22;5822;51.000;5.874;2022-12-07T10:13:00;8.50;99.90
11532;DHT22;5822;51.000;5.874;2022-12-07T10:18:36;8.60;99.90
11532;DHT22;5822;51.000;5.874;2022-12-07T10:23:40;8.50;99.90
11532;DHT22;5822;51.000;5.874;2022-12-07T10:26:26;8.40;99.90
11532;DHT22;5822;51.000;5.874;2022-12-07T10:28:54;8.50;99.90
11532;DHT22;5822;51.000;5.874;2022-12-07T10:31:22;8.50;99.90
11532;DHT22;5822;51.000;5.874;2022-12-07T10:41:29;8.90;99.90
11532;DHT22;5822;51.000;5.874;2022-12-07T10:43:57;8.90;99.90
11532;DHT22;5822;51.000;5.874;2022-12-07T10:46:34;8.80;99.90
11532;DHT22;5822;51.000;5.874;2022-12-07T10:50:01;8.80;99.90
11532;DHT22;5822;51.000;5.874;2022-12-07T10:52:02;8.90;99.90
11532;DHT22;5822;51.000;5.874;2022-12-07T11:00:04;8.90;99.90
11532;DHT22;5822;51.000;5.874;2022-12-07T11:08:14;9.00;99.90
11532;DHT22;5822;51.000;5.874;2022-12-07T11:18:51;9.00;99.90
11532;DHT22;5822;51.000;5.874;2022-12-07T11:24:02;9.00;99.90
11532;DHT22;5822;51.000;5.874;2022-12-07T11:26:54;8.80;99.90
11532;DHT22;5822;51.000;5.874;2022-12-07T11:29:44;8.90;99.90
11532;DHT22;5822;51.000;5.874;2022-12-07T11:37:43;8.90;99.90
11532;DHT22;5822;51.000;5.874;2022-12-07T11:42:57;8.90;99.90
11532;DHT22;5822;51.000;5.874;2022-12-07T11:45:27;8.90;99.90
11532;DHT22;5822;51.000;5.874;2022-12-07T11:50:37;8.90;99.90
11532;DHT22;5822;51.000;5.874;2022-12-07T11:55:57;8.80;99.90
11532;DHT22;5822;51.000;5.874;2022-12-07T12:01:28;9.00;99.90
11532;DHT22;5822;51.000;5.874;2022-12-07T12:06:35;9.10;99.90
11532;DHT22;5822;51.000;5.874;2022-12-07T12:22:26;9.20;99.90
11532;DHT22;5822;51.000;5.874;2022-12-07T12:24:54;9.20;99.90
11532;DHT22;5822;51.000;5.874;2022-12-07T12:27:30;9.10;99.90
11532;DHT22;5822;51.000;5.874;2022-12-07T12:30:02;9.10;99.90
11532;DHT22;5822;51.000;5.874;2022-12-07T12:32:42;9.20;99.90
11532;DHT22;5822;51.000;5.874;2022-12-07T12:35:34;9.10;99.90
11532;DHT22;5822;51.000;5.874;2022-12-07T12:38:34;9.20;99.90
11532;DHT22;5822;51.000;5.874;2022-12-07T12:51:47;9.20;99.90
11532;DHT22;5822;51.000;5.874;2022-12-07T12:54:24;9.30;99.90
11532;DHT22;5822;51.000;5.874;2022-12-07T13:02:34;9.20;99.90
11532;DHT22;5822;51.000;5.874;2022-12-07T13:15:44;9.30;99.90
11532;DHT22;5822;51.000;5.874;2022-12-07T13:26:14;9.50;99.90
11532;DHT22;5822;51.000;5.874;2022-12-07T13:31:38;9.50;99.90
11532;DHT22;5822;51.000;5.874;2022-12-07T13:34:26;9.50;99.90
11532;DHT22;5822;51.000;5.874;2022-12-07T13:36:51;9.50;99.90
11532;DHT22;5822;51.000;5.874;2022-12-07T13:39:22;9.60;99.90
11532;DHT22;5822;51.000;5.874;2022-12-07T13:41:56;9.60;99.90
11532;DHT22;5822;51.000;5.874;2022-12-07T13:44:23;9.50;99.90
11532;DHT22;5822;51.000;5.874;2022-12-07T13:49:49;9.50;99.90
11532;DHT22;5822;51.000;5.874;2022-12-07T13:57:16;9.50;99.90
11532;DHT22;5822;51.000;5.874;2022-12-07T13:59:42;9.40;99.90
11532;DHT22;5822;51.000;5.874;2022-12-07T14:02:35;9.40;99.90
11532;DHT22;5822;51.000;5.874;2022-12-07T14:05:24;9.50;99.90
11532;DHT22;5822;51.000;5.874;2022-12-07T14:08:05;9.40;99.90
11532;DHT22;5822;51.000;5.874;2022-12-07T14:10:40;9.30;99.90
11532;DHT22;5822;51.000;5.874;2022-12-07T14:13:38;9.30;99.90
11532;DHT22;5822;51.000;5.874;2022-12-07T14:16:35;9.30;99.90
11532;DHT22;5822;51.000;5.874;2022-12-07T14:19:03;9.20;99.90
11532;DHT22;5822;51.000;5.874;2022-12-07T14:21:31;9.30;99.90
11532;DHT22;5822;51.000;5.874;2022-12-07T14:24:16;9.30;99.90
11532;DHT22;5822;51.000;5.874;2022-12-07T14:26:44;9.30;99.90
11532;DHT22;5822;51.000;5.874;2022-12-07T14:31:52;9.20;99.90
11532;DHT22;5822;51.000;5.874;2022-12-07T14:34:23;9.20;99.90
11532;DHT22;5822;51.000;5.874;2022-12-07T14:36:49;9.10;99.90
11532;DHT22;5822;51.000;5.874;2022-12-07T14:39:15;9.10;99.90
11532;DHT22;5822;51.000;5.874;2022-12-07T14:41:44;9.10;99.90
11532;DHT22;5822;51.000;5.874;2022-12-07T14:44:20;9.10;99.90
11532;DHT22;5822;51.000;5.874;2022-12-07T14:46:48;9.20;99.90
11532;DHT22;5822;51.000;5.874;2022-12-07T14:49:13;9.20;99.90
11532;DHT22;5822;51.000;5.874;2022-12-07T14:51:40;9.30;99.90
11532;DHT22;5822;51.000;5.874;2022-12-07T14:54:14;9.30;99.90
11532;DHT22;5822;51.000;5.874;2022-12-07T14:56:40;9.30;99.90
11532;DHT22;5822;51.000;5.874;2022-12-07T14:59:07;9.30;99.90
11532;DHT22;5822;51.000;5.874;2022-12-07T15:01:32;9.10;99.90
11532;DHT22;5822;51.000;5.874;2022-12-07T15:03:58;9.10;99.90
11532;DHT22;5822;51.000;5.874;2022-12-07T15:06:24;9.20;99.90
11532;DHT22;5822;51.000;5.874;2022-12-07T15:08:49;9.20;99.90
11532;DHT22;5822;51.000;5.874;2022-12-07T15:11:17;9.20;99.90
11532;DHT22;5822;51.000;5.874;2022-12-07T15:13:43;9.10;99.90
11532;DHT22;5822;51.000;5.874;2022-12-07T15:16:27;9.10;99.90
11532;DHT22;5822;51.000;5.874;2022-12-07T15:18:53;9.10;99.90
11532;DHT22;5822;51.000;5.874;2022-12-07T15:21:18;9.00;99.90
11532;DHT22;5822;51.000;5.874;2022-12-07T15:23:46;9.00;99.90
11532;DHT22;5822;51.000;5.874;2022-12-07T15:26:11;9.00;99.90
11532;DHT22;5822;51.000;5.874;2022-12-07T15:28:41;9.10;99.90
11532;DHT22;5822;51.000;5.874;2022-12-07T15:31:14;8.90;99.90
11532;DHT22;5822;51.000;5.874;2022-12-07T15:33:40;8.90;99.90
11532;DHT22;5822;51.000;5.874;2022-12-07T15:36:09;9.00;99.90
11532;DHT22;5822;51.000;5.874;2022-12-07T15:38:40;9.00;99.90
11532;DHT22;5822;51.000;5.874;2022-12-07T15:41:06;8.80;99.90
11532;DHT22;5822;51.000;5.874;2022-12-07T15:43:31;8.70;99.90
11532;DHT22;5822;51.000;5.874;2022-12-07T15:46:16;8.70;99.90
11532;DHT22;5822;51.000;5.874;2022-12-07T15:48:42;8.80;99.90
11532;DHT22;5822;51.000;5.874;2022-12-07T15:51:08;8.70;99.90
11532;DHT22;5822;51.000;5.874;2022-12-07T15:53:35;8.80;99.90
11532;DHT22;5822;51.000;5.874;2022-12-07T15:56:01;8.80;99.90
11532;DHT22;5822;51.000;5.874;2022-12-07T15:58:31;8.80;99.90
11532;DHT22;5822;51.000;5.874;2022-12-07T16:00:56;8.80;99.90
11532;DHT22;5822;51.000;5.874;2022-12-07T16:03:22;8.80;99.90
11532;DHT22;5822;51.000;5.874;2022-12-07T16:05:52;8.70;99.90
11532;DHT22;5822;51.000;5.874;2022-12-07T16:08:18;8.70;99.90
11532;DHT22;5822;51.000;5.874;2022-12-07T16:10:44;8.60;99.90
11532;DHT22;5822;51.000;5.874;2022-12-07T16:13:12;8.60;99.90
11532;DHT22;5822;51.000;5.874;2022-12-07T16:15:39;8.70;99.90
11532;DHT22;5822;51.000;5.874;2022-12-07T16:18:05;8.70;99.90
11532;DHT22;5822;51.000;5.874;2022-12-07T16:20:31;8.60;99.90
11532;DHT22;5822;51.000;5.874;2022-12-07T16:22:57;8.70;99.90
11532;DHT22;5822;51.000;5.874;2022-12-07T16:25:22;8.50;99.90
11532;DHT22;5822;51.000;5.874;2022-12-07T16:27:48;8.50;99.90
11532;DHT22;5822;51.000;5.874;2022-12-07T16:30:15;8.50;99.90
11532;DHT22;5822;51.000;5.874;2022-12-07T16:32:42;8.60;99.90
11532;DHT22;5822;51.000;5.874;2022-12-07T16:35:08;8.70;99.90
11532;DHT22;5822;51.000;5.874;2022-12-07T16:37:34;8.70;99.90
11532;DHT22;5822;51.000;5.874;2022-12-07T16:39:59;8.60;99.90
11532;DHT22;5822;51.000;5.874;2022-12-07T16:42:25;8.70;99.90
11532;DHT22;5822;51.000;5.874;2022-12-07T16:44:52;8.70;99.90
11532;DHT22;5822;51.000;5.874;2022-12-07T16:47:18;8.70;99.90
11532;DHT22;5822;51.000;5.874;2022-12-07T16:49:43;8.70;99.90
11532;DHT22;5822;51.000;5.874;2022-12-07T16:52:09;8.80;99.90
11532;DHT22;5822;51.000;5.874;2022-12-07T16:54:35;8.60;99.90
11532;DHT22;5822;51.000;5.874;2022-12-07T16:57:01;8.60;99.90
11532;DHT22;5822;51.000;5.874;2022-12-07T16:59:27;8.70;99.90
11532;DHT22;5822;51.000;5.874;2022-12-07T17:01:52;8.70;99.90
11532;DHT22;5822;51.000;5.874;2022-12-07T17:04:18;8.70;99.90
11532;DHT22;5822;51.000;5.874;2022-12-07T17:06:44;8.70;99.90
11532;DHT22;5822;51.000;5.874;2022-12-07T17:09:09;8.70;99.90
11532;DHT22;5822;51.000;5.874;2022-12-07T17:11:37;8.60;99.90
11532;DHT22;5822;51.000;5.874;2022-12-07T17:14:03;8.60;99.90
11532;DHT22;5822;51.000;5.874;2022-12-07T17:16:47;8.60;99.90
11532;DHT22;5822;51.000;5.874;2022-12-07T17:19:15;8.60;99.90
11532;DHT22;5822;51.000;5.874;2022-12-07T17:21:42;8.60;99.90
11532;DHT22;5822;51.000;5.874;2022-12-07T17:24:11;8.60;99.90
11532;DHT22;5822;51.000;5.874;2022-12-07T17:26:38;8.60;99.90
11532;DHT22;5822;51.000;5.874;2022-12-07T17:29:05;8.60;99.90
11532;DHT22;5822;51.000;5.874;2022-12-07T17:31:32;8.60;99.90
11532;DHT22;5822;51.000;5.874;2022-12-07T17:34:01;8.50;99.90
11532;DHT22;5822;51.000;5.874;2022-12-07T17:36:29;8.50;99.90
11532;DHT22;5822;51.000;5.874;2022-12-07T17:38:55;8.60;99.90
11532;DHT22;5822;51.000;5.874;2022-12-07T17:41:28;8.60;99.90
11532;DHT22;5822;51.000;5.874;2022-12-07T17:44:17;8.50;99.90
11532;DHT22;5822;51.000;5.874;2022-12-07T17:46:44;8.50;99.90
11532;DHT22;5822;51.000;5.874;2022-12-07T17:49:12;8.50;99.90
11532;DHT22;5822;51.000;5.874;2022-12-07T17:51:38;8.50;99.90
11532;DHT22;5822;51.000;5.874;2022-12-07T17:54:22;8.50;99.90
11532;DHT22;5822;51.000;5.874;2022-12-07T17:56:48;8.40;99.90
11532;DHT22;5822;51.000;5.874;2022-12-07T17:59:14;8.40;99.90
11532;DHT22;5822;51.000;5.874;2022-12-07T18:01:40;8.50;99.90
11532;DHT22;5822;51.000;5.874;2022-12-07T18:04:06;8.50;99.90
11532;DHT22;5822;51.000;5.874;2022-12-07T18:06:32;8.60;99.90
11532;DHT22;5822;51.000;5.874;2022-12-07T18:08:58;8.60;99.90
11532;DHT22;5822;51.000;5.874;2022-12-07T18:11:24;8.60;99.90
11532;DHT22;5822;51.000;5.874;2022-12-07T18:13:51;8.60;99.90
11532;DHT22;5822;51.000;5.874;2022-12-07T18:16:20;8.50;99.90
11532;DHT22;5822;51.000;5.874;2022-12-07T18:18:47;8.40;99.90
11532;DHT22;5822;51.000;5.874;2022-12-07T18:21:16;8.40;99.90
11532;DHT22;5822;51.000;5.874;2022-12-07T18:23:45;8.40;99.90
11532;DHT22;5822;51.000;5.874;2022-12-07T18:26:11;8.50;99.90
11532;DHT22;5822;51.000;5.874;2022-12-07T18:28:41;8.40;99.90
11532;DHT22;5822;51.000;5.874;2022-12-07T18:31:07;8.50;99.90
11532;DHT22;5822;51.000;5.874;2022-12-07T18:33:33;8.30;99.90
11532;DHT22;5822;51.000;5.874;2022-12-07T18:35:59;8.30;99.90
11532;DHT22;5822;51.000;5.874;2022-12-07T18:38:29;8.30;99.90
11532;DHT22;5822;51.000;5.874;2022-12-07T18:40:55;8.30;99.90
11532;DHT22;5822;51.000;5.874;2022-12-07T18:43:21;8.40;99.90
11532;DHT22;5822;51.000;5.874;2022-12-07T18:45:49;8.40;99.90
11532;DHT22;5822;51.000;5.874;2022-12-07T18:48:16;8.40;99.90